createdAt,value
2022-10-09T00:46:59.338Z,17.20
2022-10-09T00:49:28.741Z,17.20
2022-10-09T00:51:56.811Z,17.19
2022-10-09T00:54:25.861Z,17.20
2022-10-09T00:56:53.719Z,17.20
2022-10-09T00:59:24.909Z,17.20
2022-10-09T01:45:53.472Z,17.19
2022-10-09T01:48:22.494Z,17.19
2022-10-09T01:50:52.126Z,17.20
2022-10-09T01:53:20.442Z,17.18
2022-10-09T01:55:50.448Z,17.18
2022-10-09T01:58:19.731Z,17.20
2022-10-09T02:47:39.982Z,17.17
2022-10-09T02:50:08.541Z,17.19
2022-10-09T02:52:36.513Z,17.18
2022-10-09T02:55:04.829Z,17.18
2022-10-09T02:57:32.675Z,17.17
2022-10-09T03:00:00.521Z,17.17
2022-10-09T03:46:22.425Z,17.17
2022-10-09T03:48:50.768Z,17.18
2022-10-09T03:51:18.731Z,17.17
2022-10-09T03:53:46.819Z,17.17
2022-10-09T03:56:14.678Z,17.16
2022-10-09T03:58:42.521Z,17.17
2022-10-09T04:31:20.389Z,17.16
2022-10-09T04:33:48.202Z,17.15
2022-10-09T04:36:16.773Z,17.16
2022-10-09T04:38:44.744Z,17.15
2022-10-09T04:41:12.830Z,17.16
2022-10-09T04:43:40.667Z,17.16
2022-10-09T04:46:08.669Z,17.16
2022-10-09T04:48:40.087Z,17.15
2022-10-09T04:51:08.161Z,17.15
2022-10-09T04:53:36.134Z,17.15
2022-10-09T04:56:04.085Z,17.15
2022-10-09T04:58:32.054Z,17.16
2022-10-09T05:01:00.065Z,17.15
2022-10-09T05:03:28.098Z,17.15
2022-10-09T05:05:57.379Z,17.15
2022-10-09T05:08:25.352Z,17.15
2022-10-09T05:10:53.450Z,17.15
2022-10-09T05:13:21.393Z,17.16
2022-10-09T05:15:49.249Z,17.15
2022-10-09T05:18:17.090Z,17.14
2022-10-09T05:20:45.417Z,17.14
2022-10-09T05:23:15.175Z,17.14
2022-10-09T05:25:43.141Z,17.15
2022-10-09T05:28:11.257Z,17.15
2022-10-09T05:30:42.784Z,17.15
2022-10-09T05:33:11.713Z,17.15
2022-10-09T05:35:40.296Z,17.14
2022-10-09T05:38:09.815Z,17.15
2022-10-09T05:40:39.088Z,17.14
2022-10-09T05:43:07.054Z,17.15
2022-10-09T05:45:35.664Z,17.13
2022-10-09T05:48:03.841Z,17.15
2022-10-09T05:50:34.836Z,17.15
2022-10-09T05:53:03.471Z,17.14
2022-10-09T05:55:31.676Z,17.13
2022-10-09T05:58:01.079Z,17.14
2022-10-09T06:00:29.023Z,17.14
2022-10-09T06:02:57.987Z,17.14
2022-10-09T06:05:25.944Z,17.14
2022-10-09T06:07:54.021Z,17.13
2022-10-09T06:10:22.099Z,17.14
2022-10-09T06:12:50.284Z,17.15
2022-10-09T06:15:20.073Z,17.13
2022-10-09T06:17:48.270Z,17.13
2022-10-09T06:20:16.981Z,17.15
2022-10-09T06:22:45.187Z,17.13
2022-10-09T06:25:13.274Z,17.13
2022-10-09T06:27:41.227Z,17.14
2022-10-09T06:30:09.901Z,17.14
2022-10-09T06:32:39.793Z,17.13
2022-10-09T06:35:08.708Z,17.13
2022-10-09T06:37:36.670Z,17.14
2022-10-09T06:40:05.273Z,17.13
2022-10-09T06:42:33.318Z,17.14
2022-10-09T06:45:01.539Z,17.13
2022-10-09T06:47:29.385Z,17.13
2022-10-09T06:49:58.896Z,17.13
2022-10-09T06:52:26.870Z,17.13
2022-10-09T06:54:55.303Z,17.12
2022-10-09T06:57:23.514Z,17.13
2022-10-09T06:59:52.065Z,17.13
2022-10-09T07:02:20.194Z,17.12
2022-10-09T07:04:48.479Z,17.13
2022-10-09T07:07:17.776Z,17.13
2022-10-09T07:09:45.764Z,17.12
2022-10-09T07:12:14.299Z,17.13
2022-10-09T07:14:42.254Z,17.13
2022-10-09T07:17:10.342Z,17.13
2022-10-09T07:19:38.188Z,17.13
2022-10-09T07:22:11.444Z,17.12
2022-10-09T07:24:40.952Z,17.13
2022-10-09T07:27:09.276Z,17.13
2022-10-09T07:29:37.363Z,17.10
2022-10-09T07:32:10.251Z,17.14
2022-10-09T07:34:39.901Z,17.13
2022-10-09T07:37:09.550Z,17.12
2022-10-09T07:39:42.874Z,17.12
2022-10-09T07:42:14.846Z,17.13
2022-10-09T07:44:43.038Z,17.13
2022-10-09T07:47:11.508Z,17.13
2022-10-09T07:49:41.127Z,17.13
2022-10-09T07:52:14.852Z,17.13
2022-10-09T07:54:46.455Z,17.14
2022-10-09T07:57:19.313Z,17.13
2022-10-09T07:59:49.703Z,17.13
2022-10-09T08:02:19.161Z,17.14
2022-10-09T08:04:48.587Z,17.13
2022-10-09T08:07:17.429Z,17.13
2022-10-09T08:09:46.832Z,17.13
2022-10-09T08:12:16.953Z,17.13
2022-10-09T08:14:47.262Z,17.13
2022-10-09T08:17:15.866Z,17.13
2022-10-09T08:19:45.090Z,17.14
2022-10-09T08:22:12.993Z,17.13
2022-10-09T08:24:41.242Z,17.13
2022-10-09T08:27:09.116Z,17.13
2022-10-09T08:29:40.369Z,17.13
2022-10-09T08:32:08.556Z,17.12
2022-10-09T08:34:36.645Z,17.13
2022-10-09T08:37:04.305Z,17.12
2022-10-09T08:39:32.413Z,17.13
2022-10-09T08:42:02.368Z,17.13
2022-10-09T08:44:32.197Z,17.13
2022-10-09T08:47:04.114Z,17.13
2022-10-09T08:49:38.618Z,17.13
2022-10-09T08:52:13.476Z,17.13
2022-10-09T08:54:42.590Z,17.13
2022-10-09T08:57:12.977Z,17.14
2022-10-09T08:59:41.235Z,17.13
2022-10-09T09:02:15.501Z,17.13
2022-10-09T09:04:54.428Z,17.13
2022-10-09T09:07:26.164Z,17.13
2022-10-09T09:09:56.267Z,17.13
2022-10-09T09:12:28.301Z,17.13
2022-10-09T09:15:03.166Z,17.13
2022-10-09T09:17:36.086Z,17.13
2022-10-09T09:20:06.370Z,17.14
2022-10-09T09:22:34.739Z,17.13
2022-10-09T09:25:04.436Z,17.13
2022-10-09T09:27:36.871Z,17.13
2022-10-09T09:30:06.351Z,17.15
2022-10-09T09:32:35.477Z,17.13
2022-10-09T09:35:05.134Z,17.13
2022-10-09T09:37:33.140Z,17.13
2022-10-09T09:40:35.669Z,17.14
2022-10-09T09:42:49.191Z,17.13
2022-10-09T09:45:18.224Z,17.10
2022-10-09T09:47:48.259Z,17.15
2022-10-09T09:50:42.422Z,17.13
2022-10-09T09:53:05.590Z,17.14
2022-10-09T09:55:34.945Z,17.13
2022-10-09T09:58:03.923Z,17.14
2022-10-09T10:00:33.210Z,17.14
2022-10-09T10:03:06.476Z,17.14
2022-10-09T10:05:35.934Z,17.14
2022-10-09T10:08:13.767Z,17.13
2022-10-09T10:10:44.971Z,17.14
2022-10-09T10:13:13.471Z,17.15
2022-10-09T10:15:42.425Z,17.15
2022-10-09T10:18:15.898Z,17.14
2022-10-09T10:20:44.882Z,17.14
2022-10-09T10:23:26.531Z,17.14
2022-10-09T10:25:54.659Z,17.14
2022-10-09T10:28:25.116Z,17.15
2022-10-09T10:30:55.076Z,17.15
2022-10-09T10:33:28.187Z,17.14
2022-10-09T10:35:58.723Z,17.15
2022-10-09T10:38:29.251Z,17.15
2022-10-09T10:41:01.331Z,17.15
2022-10-09T10:43:31.977Z,17.16
2022-10-09T10:46:02.260Z,17.16
2022-10-09T10:48:33.672Z,17.16
2022-10-09T10:51:04.869Z,17.16
2022-10-09T10:53:38.394Z,17.16
2022-10-09T10:56:07.026Z,17.16
2022-10-09T10:58:38.687Z,17.16
2022-10-09T11:01:11.696Z,17.16
2022-10-09T11:03:44.028Z,17.16
2022-10-09T11:06:13.815Z,17.16
2022-10-09T11:08:45.324Z,17.17
2022-10-09T11:11:16.175Z,17.18
2022-10-09T11:13:49.084Z,17.16
2022-10-09T11:16:20.918Z,17.17
2022-10-09T11:18:55.295Z,17.17
2022-10-09T11:21:27.006Z,17.17
2022-10-09T11:23:59.262Z,17.17
2022-10-09T11:26:30.292Z,17.16
2022-10-09T11:29:02.181Z,17.17
2022-10-09T11:31:31.913Z,17.11
2022-10-09T11:34:02.381Z,17.13
2022-10-09T11:36:33.629Z,17.18
2022-10-09T11:39:02.829Z,17.18
2022-10-09T11:41:32.233Z,17.18
2022-10-09T11:44:05.868Z,17.19
2022-10-09T11:46:37.681Z,17.19
2022-10-09T11:49:09.775Z,17.19
2022-10-09T11:51:39.875Z,17.19
2022-10-09T11:54:10.727Z,17.19
2022-10-09T11:56:38.411Z,17.19
2022-10-09T11:59:07.432Z,17.21
2022-10-09T12:01:36.263Z,17.21
2022-10-09T12:04:06.827Z,17.22
2022-10-09T12:06:48.747Z,17.22
2022-10-09T12:09:18.875Z,17.23
2022-10-09T12:11:55.424Z,17.23
2022-10-09T12:14:26.768Z,17.24
2022-10-09T12:16:55.262Z,17.24
2022-10-09T12:19:24.935Z,17.25
2022-10-09T12:21:56.523Z,17.25
2022-10-09T12:24:26.848Z,17.27
2022-10-09T12:26:56.065Z,17.27
2022-10-09T12:29:28.353Z,17.27
2022-10-09T12:31:58.254Z,17.27
2022-10-09T12:34:27.168Z,17.27
2022-10-09T12:37:06.271Z,17.27
2022-10-09T12:39:37.519Z,17.28
2022-10-09T12:42:06.045Z,17.29
2022-10-09T12:44:35.888Z,17.29
2022-10-09T12:47:06.145Z,17.31
2022-10-09T12:49:35.859Z,17.30
2022-10-09T12:52:05.881Z,17.31
2022-10-09T12:54:34.017Z,17.31
2022-10-09T12:57:03.436Z,17.32
2022-10-09T12:59:31.942Z,17.31
2022-10-09T13:02:01.670Z,17.33
2022-10-09T13:04:32.024Z,17.32
2022-10-09T13:07:01.870Z,17.30
2022-10-09T13:09:34.305Z,17.30
2022-10-09T13:12:06.014Z,17.29
2022-10-09T13:14:37.338Z,17.29
2022-10-09T13:17:05.756Z,17.31
2022-10-09T13:19:37.302Z,17.31
2022-10-09T13:22:09.316Z,17.31
2022-10-09T13:24:38.169Z,17.32
2022-10-09T13:27:06.061Z,17.31
2022-10-09T13:29:34.512Z,17.31
2022-10-09T13:32:03.560Z,17.31
2022-10-09T13:34:32.347Z,17.32
2022-10-09T13:37:00.766Z,17.32
2022-10-09T13:39:30.044Z,17.32
2022-10-09T13:42:01.340Z,17.33
2022-10-09T13:44:30.752Z,17.32
2022-10-09T13:46:58.496Z,17.34
2022-10-09T13:49:27.211Z,17.33
2022-10-09T13:51:54.931Z,17.33
2022-10-09T13:54:23.042Z,17.33
2022-10-09T13:56:51.983Z,17.34
2022-10-09T13:59:21.799Z,17.34
2022-10-09T14:01:51.718Z,17.34
2022-10-09T14:04:21.226Z,17.34
2022-10-09T14:06:49.358Z,17.34
2022-10-09T14:09:17.740Z,17.34
2022-10-09T14:11:46.096Z,17.34
2022-10-09T14:14:14.037Z,17.34
2022-10-09T14:16:43.343Z,17.34
2022-10-09T14:19:13.243Z,17.33
2022-10-09T14:21:41.991Z,17.34
2022-10-09T14:24:11.641Z,17.33
2022-10-09T14:26:39.726Z,17.33
2022-10-09T14:29:09.700Z,17.34
2022-10-09T14:31:40.433Z,17.34
2022-10-09T14:34:12.948Z,17.35
2022-10-09T14:36:42.388Z,17.34
2022-10-09T14:39:10.947Z,17.33
2022-10-09T15:50:01.322Z,17.33
2022-10-09T15:52:28.801Z,17.33
2022-10-09T15:54:56.600Z,17.33
2022-10-09T15:57:24.400Z,17.33
2022-10-09T15:59:51.994Z,17.33
2022-10-09T16:02:19.630Z,17.34
2022-10-09T16:04:47.914Z,17.33
2022-10-09T16:07:16.894Z,17.33
2022-10-09T16:09:44.900Z,17.33
2022-10-09T16:12:12.585Z,17.33
2022-10-09T16:14:41.033Z,17.33
2022-10-09T16:17:11.286Z,17.32
2022-10-09T16:19:39.142Z,17.32
2022-10-09T16:22:07.015Z,17.32
2022-10-09T16:24:35.857Z,17.32
2022-10-09T16:27:03.697Z,17.32
2022-10-09T16:29:32.515Z,17.32
2022-10-09T16:32:00.339Z,17.33
2022-10-09T16:34:27.820Z,17.33
2022-10-09T16:36:56.767Z,17.32
2022-10-09T16:39:24.331Z,17.32
2022-10-09T16:41:53.519Z,17.29
2022-10-09T16:44:21.096Z,17.32
2022-10-09T16:46:48.834Z,17.32
2022-10-09T16:49:21.251Z,17.32
2022-10-09T16:51:51.858Z,17.32
2022-10-09T16:54:19.628Z,17.33
2022-10-09T16:56:47.467Z,17.32
2022-10-09T16:59:16.487Z,17.31
2022-10-09T17:01:46.070Z,17.32
2022-10-09T17:04:14.468Z,17.32
2022-10-09T17:06:42.564Z,17.32
2022-10-09T17:09:13.757Z,17.32
2022-10-09T17:11:42.122Z,17.32
2022-10-09T17:14:10.033Z,17.31
2022-10-09T17:16:39.148Z,17.32
2022-10-09T17:19:06.841Z,17.32
2022-10-09T17:21:34.806Z,17.30
2022-10-09T17:24:03.816Z,17.31
2022-10-09T17:26:31.405Z,17.30
2022-10-09T17:28:59.213Z,17.29
2022-10-09T17:31:26.934Z,17.30
2022-10-09T17:33:56.358Z,17.30
2022-10-09T17:36:24.268Z,17.30
2022-10-09T17:38:51.823Z,17.30
2022-10-09T17:41:20.093Z,17.29
2022-10-09T17:43:47.581Z,17.30
2022-10-09T17:46:15.189Z,17.31
2022-10-09T17:48:45.404Z,17.30
2022-10-09T17:51:16.596Z,17.30
2022-10-09T17:53:44.314Z,17.31
2022-10-09T17:56:11.912Z,17.28
2022-10-09T17:58:39.363Z,17.30
2022-10-09T18:01:07.046Z,17.30
2022-10-09T18:03:34.929Z,17.30
2022-10-09T18:06:05.187Z,17.29
2022-10-09T18:08:35.030Z,17.30
2022-10-09T18:11:03.485Z,17.30
2022-10-09T18:13:31.650Z,17.30
2022-10-09T18:15:59.380Z,17.30
2022-10-09T18:18:27.566Z,17.29
2022-10-09T18:20:55.368Z,17.30
2022-10-09T18:23:23.035Z,17.29
2022-10-09T18:25:52.035Z,17.30
2022-10-09T18:28:20.267Z,17.30
2022-10-09T18:30:47.839Z,17.29
2022-10-09T18:33:15.334Z,17.29
2022-10-09T18:35:45.272Z,17.30
2022-10-09T18:38:12.945Z,17.29
2022-10-09T18:40:45.221Z,17.28
2022-10-09T18:43:14.623Z,17.28
2022-10-09T18:45:44.375Z,17.29
2022-10-09T18:48:11.974Z,17.28
2022-10-09T18:50:39.466Z,17.28
2022-10-09T18:53:06.926Z,17.29
2022-10-09T18:55:34.574Z,17.28
2022-10-09T18:58:02.125Z,17.29
2022-10-09T19:00:30.992Z,17.28
2022-10-09T19:02:58.507Z,17.28
2022-10-09T19:05:26.165Z,17.29
2022-10-09T19:07:55.537Z,17.28
2022-10-09T19:10:23.127Z,17.28
2022-10-09T19:12:52.413Z,17.28
2022-10-09T19:15:20.701Z,17.28
2022-10-09T19:17:53.625Z,17.27
2022-10-09T19:20:21.318Z,17.28
2022-10-09T19:22:48.791Z,17.27
2022-10-09T19:25:16.459Z,17.27
2022-10-09T19:27:44.020Z,17.27
2022-10-09T19:30:12.404Z,17.27
2022-10-09T19:32:39.925Z,17.27
2022-10-09T19:35:09.477Z,17.28
2022-10-09T19:37:37.567Z,17.27
2022-10-09T19:40:06.221Z,17.27
2022-10-09T19:42:33.718Z,17.27
2022-10-09T19:45:02.593Z,17.27
2022-10-09T19:47:32.857Z,17.29
2022-10-09T19:50:00.684Z,17.30
2022-10-09T19:52:30.040Z,17.26
2022-10-09T19:54:58.269Z,17.26
2022-10-09T19:57:26.676Z,17.27
2022-10-09T19:59:54.177Z,17.27
2022-10-09T20:02:21.725Z,17.25
2022-10-09T20:04:49.511Z,17.25
2022-10-09T20:07:16.996Z,17.26
2022-10-09T20:09:45.838Z,17.26
2022-10-09T20:12:13.420Z,17.26
2022-10-09T20:14:40.954Z,17.26
2022-10-09T20:17:08.691Z,17.26
2022-10-09T20:19:36.169Z,17.26
2022-10-09T20:22:03.634Z,17.26
2022-10-09T20:24:31.262Z,17.25
2022-10-09T20:27:00.240Z,17.26
2022-10-09T20:29:28.206Z,17.25
2022-10-09T20:31:55.715Z,17.26
2022-10-09T20:34:24.964Z,17.25
2022-10-09T20:36:52.516Z,17.25
2022-10-09T20:39:21.478Z,17.25
2022-10-09T20:41:49.148Z,17.25
2022-10-09T20:44:17.978Z,17.24
2022-10-09T20:46:45.537Z,17.25
2022-10-09T20:49:13.484Z,17.25
2022-10-09T20:51:41.060Z,17.25
2022-10-09T20:54:08.814Z,17.26
2022-10-09T20:56:36.725Z,17.25
2022-10-09T20:59:04.448Z,17.25
2022-10-09T21:01:33.316Z,17.28
2022-10-09T21:04:00.839Z,17.28
2022-10-09T21:06:30.039Z,17.29
2022-10-09T21:08:57.590Z,17.27
2022-10-09T21:11:25.183Z,17.27
2022-10-09T21:13:52.800Z,17.27
2022-10-09T21:16:21.755Z,17.27
2022-10-09T21:18:50.574Z,17.27
2022-10-09T21:21:19.184Z,17.28
2022-10-09T21:23:46.774Z,17.27
2022-10-09T21:26:14.339Z,17.27
2022-10-09T21:28:41.855Z,17.28
2022-10-09T21:31:09.761Z,17.26
2022-10-09T21:33:37.434Z,17.27
2022-10-09T21:36:10.412Z,17.27
2022-10-09T21:38:38.131Z,17.27
2022-10-09T21:41:05.718Z,17.26
2022-10-09T21:43:33.186Z,17.27
2022-10-09T21:46:00.677Z,17.26
2022-10-09T21:48:28.179Z,17.24
2022-10-09T21:50:55.932Z,17.23
2022-10-09T21:53:24.755Z,17.23
2022-10-09T21:55:53.411Z,17.23
2022-10-09T21:58:20.961Z,17.23
2022-10-09T22:00:55.350Z,17.22
2022-10-09T22:03:23.983Z,17.25
2022-10-09T22:05:51.628Z,17.25
2022-10-09T22:08:19.330Z,17.25
2022-10-09T22:10:49.619Z,17.25
2022-10-09T22:13:17.375Z,17.25
2022-10-09T22:15:50.166Z,17.23
2022-10-09T22:18:19.006Z,17.22
2022-10-09T22:20:47.166Z,17.22
2022-10-09T22:23:14.744Z,17.22
2022-10-09T22:25:42.338Z,17.22
2022-10-09T22:28:11.547Z,17.21
2022-10-09T22:30:39.151Z,17.21
2022-10-09T22:33:06.922Z,17.22
2022-10-09T22:35:34.406Z,17.22
2022-10-09T22:38:01.879Z,17.20
2022-10-09T22:40:29.729Z,17.22
2022-10-09T22:42:57.245Z,17.21
2022-10-09T22:45:26.078Z,17.21
2022-10-09T22:47:53.599Z,17.22
2022-10-09T22:50:21.081Z,17.21
2022-10-09T22:52:48.880Z,17.21
2022-10-09T22:55:16.691Z,17.21
2022-10-09T22:57:44.419Z,17.21
2022-10-09T23:47:06.198Z,17.22
2022-10-09T23:49:33.894Z,17.22
2022-10-09T23:52:01.417Z,17.22
2022-10-09T23:54:29.039Z,17.22
2022-10-09T23:56:56.573Z,17.22
2022-10-09T23:59:24.295Z,17.23
